createdAt,value
2022-10-01T00:01:17.767Z,3.00
2022-10-01T00:03:45.455Z,3.58
2022-10-01T00:06:17.539Z,3.20
2022-10-01T00:08:49.247Z,3.40
2022-10-01T00:11:24.514Z,3.47
2022-10-01T00:13:52.672Z,3.50
2022-10-01T00:16:23.100Z,3.47
2022-10-01T00:18:50.501Z,3.97
2022-10-01T00:21:29.509Z,3.50
2022-10-01T00:24:03.139Z,3.45
2022-10-01T00:26:32.943Z,3.40
2022-10-01T00:29:02.262Z,3.58
2022-10-01T00:31:29.970Z,3.20
2022-10-01T00:33:59.127Z,3.33
2022-10-01T00:36:26.769Z,3.35
2022-10-01T00:38:53.749Z,3.53
2022-10-01T00:41:20.699Z,3.25
2022-10-01T00:43:54.887Z,3.03
2022-10-01T00:46:27.812Z,3.20
2022-10-01T00:49:07.208Z,2.90
2022-10-01T00:51:41.060Z,3.13
2022-10-01T00:54:13.377Z,2.95
2022-10-01T00:56:41.683Z,2.80
2022-10-01T00:59:10.200Z,2.75
2022-10-01T01:01:38.978Z,2.30
2022-10-01T01:04:16.458Z,2.60
2022-10-01T01:06:57.806Z,2.42
2022-10-01T01:09:33.407Z,2.20
2022-10-01T01:12:34.027Z,2.15
2022-10-01T01:15:10.750Z,2.10
2022-10-01T01:17:53.253Z,2.00
2022-10-01T01:20:53.779Z,2.42
2022-10-01T01:23:58.484Z,2.30
2022-10-01T01:26:31.608Z,2.05
2022-10-01T01:29:04.664Z,2.10
2022-10-01T01:31:37.810Z,1.90
2022-10-01T01:34:12.552Z,1.80
2022-10-01T01:36:45.127Z,1.73
2022-10-01T01:39:15.442Z,2.05
2022-10-01T01:41:51.041Z,1.80
2022-10-01T01:44:24.997Z,1.50
2022-10-01T01:49:21.027Z,1.45
2022-10-01T01:52:05.368Z,1.30
2022-10-01T01:54:34.572Z,1.20
2022-10-01T01:57:04.167Z,1.30
2022-10-01T01:59:35.561Z,1.17
2022-10-01T02:02:06.919Z,1.15
2022-10-01T02:04:54.709Z,1.42
2022-10-01T02:07:33.227Z,1.20
2022-10-01T02:10:39.141Z,1.00
2022-10-01T02:13:18.976Z,1.23
2022-10-01T02:15:56.930Z,1.00
2022-10-01T02:18:33.987Z,2.10
2022-10-01T02:21:05.315Z,1.00
2022-10-01T02:23:39.171Z,1.10
2022-10-01T02:28:40.004Z,1.25
2022-10-01T02:31:07.642Z,1.30
2022-10-01T02:33:36.667Z,1.00
2022-10-01T02:36:07.331Z,1.23
2022-10-01T02:38:37.399Z,0.95
2022-10-01T02:41:09.016Z,1.10
2022-10-01T02:43:42.958Z,1.10
2022-10-01T02:46:44.589Z,1.05
2022-10-01T02:49:13.417Z,1.20
2022-10-01T02:51:55.872Z,1.20
2022-10-01T02:54:36.313Z,1.10
2022-10-01T02:57:21.628Z,1.10
2022-10-01T02:59:49.063Z,1.20
2022-10-01T03:02:16.224Z,1.10
2022-10-01T03:04:43.220Z,1.08
2022-10-01T03:07:10.165Z,1.00
2022-10-01T03:09:37.115Z,1.10
2022-10-01T03:12:04.080Z,0.90
2022-10-01T03:14:32.420Z,0.90
2022-10-01T03:16:59.542Z,1.10
2022-10-01T03:19:26.489Z,1.20
2022-10-01T03:21:53.444Z,1.05
2022-10-01T03:24:20.377Z,1.00
2022-10-01T03:26:47.232Z,0.90
2022-10-01T03:29:14.777Z,0.90
2022-10-01T03:31:41.963Z,1.00
2022-10-01T03:34:09.219Z,0.80
2022-10-01T03:36:36.156Z,0.90
2022-10-01T03:39:03.147Z,0.88
2022-10-01T03:41:30.045Z,0.90
2022-10-01T03:44:00.417Z,0.75
2022-10-01T03:46:27.680Z,0.90
2022-10-01T03:48:55.913Z,0.80
2022-10-01T03:51:23.395Z,0.80
2022-10-01T03:53:50.421Z,0.80
2022-10-01T03:56:17.458Z,0.88
2022-10-01T03:58:44.356Z,0.80
2022-10-01T04:01:11.375Z,0.90
2022-10-01T04:03:38.326Z,0.90
2022-10-01T04:06:05.405Z,0.90
2022-10-01T04:08:32.305Z,0.88
2022-10-01T04:11:01.008Z,1.02
2022-10-01T04:13:29.977Z,1.00
2022-10-01T04:15:56.951Z,0.98
2022-10-01T04:18:24.138Z,1.00
2022-10-01T04:20:51.101Z,1.20
2022-10-01T04:23:18.239Z,1.40
2022-10-01T04:25:45.422Z,1.40
2022-10-01T04:28:13.630Z,1.50
2022-10-01T04:30:42.790Z,1.30
2022-10-01T04:33:13.208Z,1.02
2022-10-01T04:35:40.240Z,1.40
2022-10-01T04:38:12.432Z,1.20
2022-10-01T04:40:39.503Z,1.45
2022-10-01T04:43:10.619Z,1.40
2022-10-01T04:45:38.181Z,1.98
2022-10-01T04:48:05.556Z,2.42
2022-10-01T04:50:32.681Z,2.53
2022-10-01T04:52:59.801Z,2.45
2022-10-01T04:55:26.991Z,2.40
2022-10-01T04:57:53.968Z,3.13
2022-10-01T05:00:24.601Z,2.55
2022-10-01T05:02:52.320Z,2.80
2022-10-01T05:05:21.566Z,2.78
2022-10-01T05:07:49.233Z,2.33
2022-10-01T05:10:18.816Z,2.75
2022-10-01T05:12:46.961Z,3.25
2022-10-01T05:15:15.088Z,2.95
2022-10-01T05:17:42.517Z,2.55
2022-10-01T05:20:19.133Z,3.15
2022-10-01T05:22:47.367Z,4.15
2022-10-01T05:25:14.671Z,3.38
2022-10-01T05:27:41.965Z,3.10
2022-10-01T05:30:10.753Z,3.05
2022-10-01T05:32:38.621Z,4.03
2022-10-01T05:35:08.323Z,3.47
2022-10-01T05:37:35.876Z,3.60
2022-10-01T05:40:03.771Z,3.53
2022-10-01T05:42:30.755Z,2.90
2022-10-01T05:44:57.673Z,3.08
2022-10-01T05:47:24.756Z,3.70
2022-10-01T05:49:51.653Z,2.60
2022-10-01T05:52:18.586Z,2.70
2022-10-01T05:54:45.447Z,2.90
2022-10-01T05:57:13.095Z,3.28
2022-10-01T05:59:40.300Z,3.45
2022-10-01T06:02:09.965Z,3.25
2022-10-01T06:04:40.986Z,3.83
2022-10-01T06:07:08.215Z,3.35
2022-10-01T06:09:35.113Z,4.18
2022-10-01T06:12:02.715Z,4.53
2022-10-01T06:14:29.802Z,3.95
2022-10-01T06:16:56.881Z,5.00
2022-10-01T06:19:23.907Z,4.35
2022-10-01T06:21:51.992Z,5.43
2022-10-01T06:24:19.076Z,4.97
2022-10-01T06:26:46.045Z,4.55
2022-10-01T06:29:12.981Z,3.78
2022-10-01T06:31:40.055Z,4.07
2022-10-01T06:34:07.125Z,4.18
2022-10-01T06:36:34.518Z,4.13
2022-10-01T06:39:01.528Z,6.22
2022-10-01T06:41:28.539Z,4.18
2022-10-01T06:43:55.445Z,4.72
2022-10-01T06:46:22.541Z,4.00
2022-10-01T06:48:49.897Z,4.43
2022-10-01T06:51:36.968Z,5.22
2022-10-01T06:54:04.731Z,4.57
2022-10-01T06:56:31.619Z,4.20
2022-10-01T06:58:58.524Z,4.45
2022-10-01T07:01:25.578Z,4.43
2022-10-01T07:03:54.526Z,5.65
2022-10-01T07:06:21.412Z,5.20
2022-10-01T07:08:51.386Z,4.57
2022-10-01T07:11:19.145Z,4.90
2022-10-01T07:13:46.119Z,5.85
2022-10-01T07:16:13.235Z,5.55
2022-10-01T07:18:40.217Z,6.30
2022-10-01T07:21:07.265Z,5.55
2022-10-01T07:23:34.179Z,5.82
2022-10-01T07:26:03.715Z,5.45
2022-10-01T07:28:30.709Z,5.97
2022-10-01T07:31:07.268Z,4.85
2022-10-01T07:33:34.508Z,6.00
2022-10-01T07:36:02.993Z,5.20
2022-10-01T07:38:30.163Z,5.90
2022-10-01T07:40:58.908Z,5.75
2022-10-01T07:43:26.062Z,5.25
2022-10-01T07:45:55.208Z,5.78
2022-10-01T07:48:22.330Z,5.15
2022-10-01T07:50:49.634Z,5.28
2022-10-01T07:53:17.204Z,6.38
2022-10-01T07:55:44.876Z,5.85
2022-10-01T07:58:12.608Z,6.18
2022-10-01T08:00:40.064Z,7.00
2022-10-01T08:03:07.119Z,6.93
2022-10-01T08:05:36.165Z,6.50
2022-10-01T08:08:07.542Z,5.43
2022-10-01T08:10:36.515Z,5.97
2022-10-01T08:13:14.444Z,5.85
2022-10-01T08:15:46.724Z,5.55
2022-10-01T08:18:14.105Z,6.05
2022-10-01T08:20:41.194Z,5.72
2022-10-01T08:23:10.621Z,5.53
2022-10-01T08:25:38.146Z,5.13
2022-10-01T08:28:06.566Z,5.35
2022-10-01T08:30:33.544Z,4.25
2022-10-01T08:33:01.916Z,4.65
2022-10-01T08:35:30.215Z,5.30
2022-10-01T08:38:04.108Z,4.20
2022-10-01T08:43:12.877Z,4.18
2022-10-01T08:45:45.445Z,3.40
2022-10-01T08:48:42.876Z,4.68
2022-10-01T08:51:33.283Z,5.43
2022-10-01T08:54:16.462Z,4.07
2022-10-01T08:56:47.566Z,3.88
2022-10-01T08:59:51.099Z,3.47
2022-10-01T09:02:19.375Z,3.85
2022-10-01T09:04:48.151Z,3.35
2022-10-01T09:07:41.467Z,3.72
2022-10-01T09:10:20.293Z,3.75
2022-10-01T09:13:08.735Z,3.58
2022-10-01T09:15:58.080Z,3.55
2022-10-01T09:19:02.707Z,3.35
2022-10-01T09:21:50.549Z,3.58
2022-10-01T09:24:32.321Z,4.00
2022-10-01T09:27:00.808Z,3.13
2022-10-01T09:29:39.228Z,3.50
2022-10-01T09:32:07.027Z,3.47
2022-10-01T09:34:43.104Z,3.92
2022-10-01T09:37:30.303Z,4.15
2022-10-01T09:40:14.915Z,3.83
2022-10-01T09:42:42.499Z,3.72
2022-10-01T09:45:17.045Z,3.90
2022-10-01T09:47:51.149Z,3.40
2022-10-01T09:50:41.129Z,4.20
2022-10-01T09:53:18.192Z,3.80
2022-10-01T09:55:52.338Z,3.22
2022-10-01T09:58:23.882Z,3.90
2022-10-01T10:00:53.634Z,3.67
2022-10-01T10:03:30.782Z,3.60
2022-10-01T10:06:02.166Z,3.90
2022-10-01T10:08:35.604Z,3.35
2022-10-01T10:11:06.680Z,3.55
2022-10-01T10:13:40.709Z,3.45
2022-10-01T10:16:26.322Z,3.88
2022-10-01T10:19:02.679Z,4.22
2022-10-01T10:21:34.906Z,3.92
2022-10-01T10:24:06.872Z,3.58
2022-10-01T10:26:38.803Z,3.42
2022-10-01T10:29:24.301Z,4.22
2022-10-01T10:31:51.708Z,3.58
2022-10-01T10:34:31.922Z,3.80
2022-10-01T10:37:05.262Z,4.18
2022-10-01T10:39:36.338Z,3.97
2022-10-01T10:42:05.786Z,4.30
2022-10-01T10:44:38.851Z,2.92
2022-10-01T10:47:13.637Z,3.10
2022-10-01T10:50:04.167Z,3.30
2022-10-01T10:52:36.927Z,3.47
2022-10-01T10:55:28.944Z,3.65
2022-10-01T10:57:58.003Z,4.05
2022-10-01T11:00:26.375Z,3.50
2022-10-01T11:03:00.923Z,3.40
2022-10-01T11:05:32.122Z,3.25
2022-10-01T11:08:04.084Z,3.10
2022-10-01T11:10:43.066Z,3.15
2022-10-01T11:13:29.331Z,3.15
2022-10-01T11:16:20.933Z,3.00
2022-10-01T11:19:01.701Z,2.63
2022-10-01T11:21:48.422Z,3.03
2022-10-01T11:24:33.614Z,3.25
2022-10-01T11:27:03.557Z,3.00
2022-10-01T11:29:54.862Z,3.40
2022-10-01T11:32:31.219Z,4.55
2022-10-01T11:35:18.791Z,3.13
2022-10-01T11:38:06.621Z,3.63
2022-10-01T11:40:41.179Z,3.05
2022-10-01T11:43:23.302Z,2.63
2022-10-01T11:45:56.483Z,2.55
2022-10-01T11:48:33.964Z,2.45
2022-10-01T11:51:09.508Z,3.45
2022-10-01T11:53:51.216Z,3.20
2022-10-01T11:56:42.807Z,2.95
2022-10-01T11:59:20.270Z,2.80
2022-10-01T12:02:09.265Z,2.55
2022-10-01T12:04:52.439Z,2.50
2022-10-01T12:07:36.413Z,2.55
2022-10-01T12:10:39.117Z,2.65
2022-10-01T12:13:32.874Z,3.60
2022-10-01T12:16:18.325Z,3.13
2022-10-01T12:18:59.444Z,3.58
2022-10-01T12:21:33.800Z,3.95
2022-10-01T12:24:31.735Z,3.70
2022-10-01T12:27:19.867Z,3.75
2022-10-01T12:29:49.551Z,3.10
2022-10-01T12:32:31.566Z,3.58
2022-10-01T12:35:18.764Z,3.13
2022-10-01T12:38:03.791Z,3.58
2022-10-01T12:40:31.571Z,3.83
2022-10-01T12:43:28.611Z,3.30
2022-10-01T12:46:32.051Z,4.30
2022-10-01T12:49:10.908Z,3.47
2022-10-01T12:51:38.271Z,3.85
2022-10-01T12:54:32.220Z,3.47
2022-10-01T12:57:37.399Z,3.63
2022-10-01T13:00:08.896Z,3.70
2022-10-01T13:02:48.011Z,3.30
2022-10-01T13:05:44.432Z,3.00
2022-10-01T13:08:17.164Z,3.22
2022-10-01T13:11:20.754Z,2.72
2022-10-01T13:13:52.256Z,3.38
2022-10-01T13:16:38.231Z,3.38
2022-10-01T13:19:05.504Z,2.95
2022-10-01T13:21:42.165Z,3.15
2022-10-01T13:24:44.820Z,3.17
2022-10-01T13:27:24.540Z,3.55
2022-10-01T13:30:06.028Z,3.15
2022-10-01T13:32:34.244Z,3.05
2022-10-01T13:35:21.489Z,3.47
2022-10-01T13:37:48.458Z,4.07
2022-10-01T13:40:27.495Z,3.17
2022-10-01T13:42:59.052Z,4.07
2022-10-01T13:45:30.890Z,3.67
2022-10-01T13:48:29.705Z,3.53
2022-10-01T13:51:07.242Z,3.25
2022-10-01T13:53:37.059Z,3.55
2022-10-01T13:56:05.295Z,3.63
2022-10-01T13:58:38.481Z,3.63
2022-10-01T14:01:26.378Z,4.13
2022-10-01T14:04:14.936Z,4.03
2022-10-01T14:06:54.802Z,4.00
2022-10-01T14:09:31.543Z,4.40
2022-10-01T14:12:27.310Z,3.78
2022-10-01T14:15:18.768Z,4.07
2022-10-01T14:17:50.119Z,4.70
2022-10-01T14:20:24.078Z,4.55
2022-10-01T14:22:50.997Z,4.50
2022-10-01T14:25:49.198Z,4.90
2022-10-01T14:29:05.808Z,4.65
2022-10-01T14:32:08.671Z,4.32
2022-10-01T14:35:01.583Z,4.05
2022-10-01T14:37:29.847Z,4.32
2022-10-01T14:40:18.744Z,4.50
2022-10-01T14:43:00.000Z,4.55
2022-10-01T14:45:27.247Z,5.07
2022-10-01T14:48:05.489Z,5.10
2022-10-01T14:50:37.674Z,4.68
2022-10-01T14:53:05.872Z,4.75
2022-10-01T14:55:35.757Z,4.00
2022-10-01T14:58:04.704Z,4.47
2022-10-01T15:00:33.345Z,4.85
2022-10-01T15:03:15.642Z,4.47
2022-10-01T15:05:44.016Z,4.28
2022-10-01T15:08:24.312Z,4.30
2022-10-01T15:11:00.722Z,4.70
2022-10-01T15:13:32.112Z,4.53
2022-10-01T15:15:59.768Z,4.72
2022-10-01T15:18:27.049Z,4.22
2022-10-01T15:20:57.768Z,3.58
2022-10-01T15:23:27.516Z,4.20
2022-10-01T15:25:56.697Z,3.50
2022-10-01T15:28:32.110Z,3.67
2022-10-01T15:31:01.223Z,3.70
2022-10-01T15:33:36.246Z,4.00
2022-10-01T15:36:05.856Z,2.97
2022-10-01T15:38:33.876Z,3.38
2022-10-01T15:41:26.642Z,2.92
2022-10-01T15:43:50.462Z,3.25
2022-10-01T15:46:29.950Z,3.20
2022-10-01T15:49:12.261Z,3.28
2022-10-01T15:52:11.400Z,2.80
2022-10-01T15:54:41.324Z,3.40
2022-10-01T15:57:09.265Z,3.08
2022-10-01T15:59:39.515Z,3.53
2022-10-01T16:02:18.675Z,2.67
2022-10-01T16:04:46.961Z,3.10
2022-10-01T16:07:31.038Z,2.90
2022-10-01T16:12:29.364Z,3.00
2022-10-01T16:15:00.820Z,2.78
2022-10-01T16:17:58.682Z,3.28
2022-10-01T16:20:37.634Z,2.78
2022-10-01T16:23:33.088Z,3.45
2022-10-01T16:26:04.841Z,3.15
2022-10-01T16:28:34.511Z,3.45
2022-10-01T16:31:04.012Z,4.82
2022-10-01T16:33:30.978Z,4.00
2022-10-01T16:36:26.282Z,3.78
2022-10-01T16:38:53.723Z,3.92
2022-10-01T16:41:26.206Z,4.03
2022-10-01T16:43:56.227Z,3.53
2022-10-01T16:46:23.237Z,3.67
2022-10-01T16:48:51.769Z,3.80
2022-10-01T16:51:19.689Z,3.50
2022-10-01T16:53:47.106Z,4.43
2022-10-01T16:56:14.835Z,3.60
2022-10-01T16:58:43.269Z,4.78
2022-10-01T17:01:14.703Z,4.22
2022-10-01T17:03:41.826Z,4.82
2022-10-01T17:06:08.815Z,4.63
2022-10-01T17:08:35.780Z,4.75
2022-10-01T17:11:03.345Z,4.00
2022-10-01T17:13:35.596Z,4.82
2022-10-01T17:16:05.001Z,4.25
2022-10-01T17:18:32.061Z,4.45
2022-10-01T17:20:59.582Z,3.72
2022-10-01T17:23:26.519Z,4.82
2022-10-01T17:25:53.635Z,4.38
2022-10-01T17:28:21.039Z,3.95
2022-10-01T17:30:49.241Z,3.47
2022-10-01T17:33:19.517Z,3.90
2022-10-01T17:35:54.736Z,4.10
2022-10-01T17:38:22.794Z,3.80
2022-10-01T17:40:55.430Z,4.60
2022-10-01T17:46:00.117Z,4.50
2022-10-01T17:48:28.236Z,4.03
2022-10-01T17:51:00.569Z,4.93
2022-10-01T17:53:34.075Z,4.28
2022-10-01T17:56:12.341Z,4.20
2022-10-01T17:58:42.941Z,5.45
2022-10-01T18:01:14.882Z,4.60
2022-10-01T18:03:42.203Z,4.97
2022-10-01T18:06:13.512Z,4.28
2022-10-01T18:08:54.772Z,4.95
2022-10-01T18:11:24.333Z,5.25
2022-10-01T18:13:52.593Z,5.18
2022-10-01T18:16:19.917Z,4.57
2022-10-01T18:21:34.928Z,5.07
2022-10-01T18:24:04.721Z,4.57
2022-10-01T18:26:33.145Z,5.32
2022-10-01T18:29:00.504Z,5.55
2022-10-01T18:31:34.543Z,4.60
2022-10-01T18:34:03.797Z,5.18
2022-10-01T18:36:37.154Z,5.47
2022-10-01T18:39:07.999Z,5.35
2022-10-01T18:41:39.595Z,4.97
2022-10-01T18:44:19.943Z,5.55
2022-10-01T18:46:50.036Z,5.80
2022-10-01T18:49:19.863Z,5.78
2022-10-01T18:51:51.938Z,5.57
2022-10-01T18:54:25.677Z,5.18
2022-10-01T18:57:15.656Z,5.82
2022-10-01T18:59:55.173Z,5.90
2022-10-01T19:02:55.749Z,5.60
2022-10-01T19:05:46.001Z,5.22
2022-10-01T19:08:42.621Z,5.10
2022-10-01T19:11:53.281Z,5.00
2022-10-01T19:14:37.032Z,7.88
2022-10-01T19:17:12.987Z,5.57
2022-10-01T19:20:24.901Z,5.75
2022-10-01T19:23:02.592Z,5.68
2022-10-01T19:25:47.639Z,5.95
2022-10-01T19:28:43.960Z,4.65
2022-10-01T19:31:28.729Z,5.32
2022-10-01T19:34:11.120Z,5.60
2022-10-01T19:36:41.581Z,5.95
2022-10-01T19:39:20.299Z,5.85
2022-10-01T19:42:16.476Z,5.90
2022-10-01T19:45:04.739Z,5.82
2022-10-01T19:47:34.405Z,6.22
2022-10-01T19:50:07.172Z,5.47
2022-10-01T19:52:38.314Z,6.70
2022-10-01T19:55:13.935Z,6.25
2022-10-01T19:57:43.716Z,5.38
2022-10-01T20:00:19.658Z,5.47
2022-10-01T20:02:51.302Z,6.68
2022-10-01T20:05:28.976Z,5.55
2022-10-01T20:08:15.889Z,5.40
2022-10-01T20:10:48.567Z,6.57
2022-10-01T20:13:39.083Z,7.10
2022-10-01T20:16:40.843Z,6.35
2022-10-01T20:19:27.226Z,6.07
2022-10-01T20:22:03.517Z,6.50
2022-10-01T20:25:04.185Z,5.97
2022-10-01T20:27:49.349Z,6.60
2022-10-01T20:30:21.272Z,5.88
2022-10-01T20:33:01.609Z,6.30
2022-10-01T20:35:47.020Z,6.57
2022-10-01T20:38:21.561Z,5.97
2022-10-01T20:40:55.549Z,6.57
2022-10-01T20:43:37.273Z,5.85
2022-10-01T20:46:16.545Z,7.45
2022-10-01T20:48:49.543Z,6.32
2022-10-01T20:51:42.916Z,5.88
2022-10-01T20:54:24.887Z,6.38
2022-10-01T20:57:20.407Z,5.40
2022-10-01T20:59:53.471Z,5.32
2022-10-01T21:02:20.392Z,4.67
2022-10-01T21:05:06.792Z,5.47
2022-10-01T21:07:48.847Z,4.93
2022-10-01T21:10:40.171Z,5.43
2022-10-01T21:13:33.852Z,4.40
2022-10-01T21:16:15.886Z,5.17
2022-10-01T21:19:14.067Z,5.40
2022-10-01T21:22:03.934Z,5.13
2022-10-01T21:25:03.227Z,4.45
2022-10-01T21:27:58.847Z,3.80
2022-10-01T21:30:32.160Z,5.80
2022-10-01T21:33:12.328Z,4.97
2022-10-01T21:35:47.904Z,4.43
2022-10-01T21:38:39.946Z,5.78
2022-10-01T21:41:13.104Z,4.85
2022-10-01T21:43:45.841Z,4.38
2022-10-01T21:46:46.081Z,4.25
2022-10-01T21:49:34.098Z,4.63
2022-10-01T21:52:27.431Z,4.35
2022-10-01T21:55:21.340Z,3.72
2022-10-01T21:58:07.725Z,4.90
2022-10-01T22:00:34.772Z,4.28
2022-10-01T22:03:10.889Z,5.40
2022-10-01T22:05:41.100Z,4.32
2022-10-01T22:08:37.252Z,4.18
2022-10-01T22:11:10.173Z,5.15
2022-10-01T22:13:46.171Z,4.20
2022-10-01T22:16:16.985Z,4.53
2022-10-01T22:19:00.651Z,4.10
2022-10-01T22:21:44.708Z,4.57
2022-10-01T22:24:46.319Z,4.20
2022-10-01T22:27:19.153Z,4.90
2022-10-01T22:29:58.439Z,4.60
2022-10-01T22:32:29.366Z,3.90
2022-10-01T22:35:02.995Z,4.85
2022-10-01T22:38:02.138Z,3.92
2022-10-01T22:40:42.214Z,4.50
2022-10-01T22:43:12.992Z,3.85
2022-10-01T22:46:06.738Z,4.93
2022-10-01T22:48:46.053Z,4.32
2022-10-01T22:51:24.948Z,5.07
2022-10-01T22:54:20.196Z,4.43
2022-10-01T22:56:53.178Z,4.32
2022-10-01T22:59:20.122Z,5.47
2022-10-01T23:02:08.938Z,4.47
2022-10-01T23:04:47.211Z,5.60
2022-10-01T23:08:04.775Z,4.32
2022-10-01T23:11:02.451Z,4.53
2022-10-01T23:14:09.948Z,4.40
2022-10-01T23:16:54.806Z,4.88
2022-10-01T23:19:47.226Z,4.15
2022-10-01T23:22:35.510Z,4.25
2022-10-01T23:25:14.301Z,4.35
2022-10-01T23:28:07.822Z,4.97
2022-10-01T23:31:06.898Z,4.55
2022-10-01T23:34:09.052Z,4.93
2022-10-01T23:36:47.008Z,4.50
2022-10-01T23:39:26.051Z,4.38
2022-10-01T23:41:58.820Z,5.30
2022-10-01T23:44:49.984Z,4.70
2022-10-01T23:47:22.205Z,4.18
2022-10-01T23:49:53.885Z,4.60
2022-10-01T23:52:32.160Z,5.10
2022-10-01T23:55:24.764Z,4.47
2022-10-01T23:58:02.341Z,4.25
